createdAt,value
2023-04-09T00:01:09.415Z,11.00
2023-04-09T00:03:38.261Z,11.08
2023-04-09T00:06:08.165Z,10.97
2023-04-09T00:08:35.451Z,11.02
2023-04-09T00:11:02.378Z,11.07
2023-04-09T00:13:38.592Z,11.08
2023-04-09T00:16:09.921Z,10.88
2023-04-09T00:18:39.243Z,11.03
2023-04-09T00:21:16.157Z,11.08
2023-04-09T00:23:43.944Z,11.26
2023-04-09T00:26:10.980Z,11.46
2023-04-09T00:28:37.998Z,11.31
2023-04-09T00:31:05.639Z,11.26
2023-04-09T00:33:32.740Z,11.28
2023-04-09T00:36:02.207Z,11.33
2023-04-09T00:38:31.905Z,11.22
2023-04-09T00:40:58.797Z,11.38
2023-04-09T00:43:25.892Z,11.51
2023-04-09T00:45:53.115Z,11.32
2023-04-09T00:48:20.872Z,11.38
2023-04-09T00:50:50.319Z,11.50
2023-04-09T00:53:18.308Z,11.53
2023-04-09T00:55:50.297Z,11.42
2023-04-09T00:58:20.556Z,11.42
2023-04-09T01:00:47.717Z,11.25
2023-04-09T01:03:17.354Z,11.20
2023-04-09T01:06:07.459Z,11.33
2023-04-09T01:09:25.256Z,11.23
2023-04-09T01:12:53.832Z,11.33
2023-04-09T01:15:32.369Z,11.42
2023-04-09T01:18:25.191Z,11.38
2023-04-09T01:21:14.541Z,11.43
2023-04-09T01:23:54.976Z,11.57
2023-04-09T01:27:01.573Z,11.54
2023-04-09T01:29:33.584Z,11.48
2023-04-09T01:32:06.056Z,11.59
2023-04-09T01:34:36.673Z,11.58
2023-04-09T01:37:04.571Z,11.51
2023-04-09T01:39:32.873Z,11.55
2023-04-09T01:42:02.106Z,11.57
2023-04-09T01:44:29.990Z,11.65
2023-04-09T01:46:59.351Z,11.66
2023-04-09T01:49:27.996Z,11.57
2023-04-09T01:51:55.379Z,11.48
2023-04-09T01:54:22.430Z,11.50
2023-04-09T01:56:49.566Z,11.50
2023-04-09T01:59:16.594Z,11.38
2023-04-09T02:01:54.505Z,11.27
2023-04-09T02:04:33.764Z,11.23
2023-04-09T02:07:10.658Z,11.08
2023-04-09T02:09:40.790Z,11.31
2023-04-09T02:12:16.949Z,11.29
2023-04-09T02:14:47.134Z,11.26
2023-04-09T02:17:17.617Z,11.26
2023-04-09T02:19:47.973Z,11.24
2023-04-09T02:22:16.938Z,11.17
2023-04-09T02:24:46.791Z,11.16
2023-04-09T02:27:13.783Z,11.25
2023-04-09T02:29:43.990Z,11.07
2023-04-09T02:32:10.953Z,11.15
2023-04-09T02:34:38.013Z,11.04
2023-04-09T02:37:05.035Z,10.99
2023-04-09T02:39:32.194Z,11.13
2023-04-09T02:41:59.200Z,11.16
2023-04-09T02:44:28.649Z,11.07
2023-04-09T02:46:56.445Z,10.98
2023-04-09T02:49:23.574Z,11.12
2023-04-09T02:51:56.056Z,11.11
2023-04-09T02:54:25.321Z,11.14
2023-04-09T02:56:52.388Z,11.18
2023-04-09T02:59:19.326Z,11.07
2023-04-09T03:01:49.399Z,11.01
2023-04-09T03:04:21.759Z,11.00
2023-04-09T03:06:51.751Z,11.13
2023-04-09T03:09:18.805Z,11.10
2023-04-09T03:11:45.747Z,11.05
2023-04-09T03:14:12.719Z,11.03
2023-04-09T03:16:41.877Z,10.98
2023-04-09T03:19:08.851Z,10.97
2023-04-09T03:21:35.903Z,10.97
2023-04-09T03:24:05.909Z,11.03
2023-04-09T03:26:36.486Z,11.00
2023-04-09T03:29:04.972Z,10.91
2023-04-09T03:31:34.654Z,10.99
2023-04-09T03:34:01.593Z,10.99
2023-04-09T03:36:31.231Z,10.99
2023-04-09T03:38:58.179Z,10.84
2023-04-09T03:41:26.657Z,10.84
2023-04-09T03:43:56.087Z,10.94
2023-04-09T03:46:25.446Z,10.80
2023-04-09T03:48:57.070Z,10.83
2023-04-09T03:51:24.171Z,10.87
2023-04-09T03:53:51.456Z,10.72
2023-04-09T03:56:18.427Z,10.81
2023-04-09T03:58:51.011Z,10.90
2023-04-09T04:01:18.190Z,10.88
2023-04-09T04:03:48.307Z,10.75
2023-04-09T04:06:17.532Z,10.64
2023-04-09T04:08:46.703Z,10.78
2023-04-09T04:11:16.168Z,10.88
2023-04-09T04:13:45.357Z,10.93
2023-04-09T04:16:14.832Z,10.91
2023-04-09T04:18:41.779Z,10.94
2023-04-09T04:21:14.620Z,11.00
2023-04-09T04:23:41.802Z,10.99
2023-04-09T04:26:10.947Z,11.03
2023-04-09T04:28:39.415Z,11.16
2023-04-09T04:31:12.917Z,10.93
2023-04-09T04:33:42.106Z,10.92
2023-04-09T04:36:11.845Z,11.02
2023-04-09T04:38:41.896Z,11.11
2023-04-09T04:41:11.271Z,10.87
2023-04-09T04:43:41.504Z,10.54
2023-04-09T04:46:08.560Z,10.66
2023-04-09T04:48:37.994Z,10.55
2023-04-09T04:51:05.150Z,10.75
2023-04-09T04:53:35.168Z,10.83
2023-04-09T04:56:04.369Z,10.66
2023-04-09T04:58:31.485Z,10.72
2023-04-09T05:00:58.528Z,10.78
2023-04-09T05:03:27.472Z,10.71
2023-04-09T05:05:54.753Z,10.65
2023-04-09T05:08:28.903Z,10.72
2023-04-09T05:10:56.298Z,10.85
2023-04-09T05:13:24.204Z,10.89
2023-04-09T05:15:54.214Z,10.91
2023-04-09T05:18:21.626Z,10.83
2023-04-09T05:20:48.543Z,10.70
2023-04-09T05:23:18.508Z,10.71
2023-04-09T05:25:45.432Z,10.73
2023-04-09T05:28:12.387Z,10.62
2023-04-09T05:30:41.917Z,10.66
2023-04-09T05:33:11.230Z,10.70
2023-04-09T05:35:41.518Z,10.98
2023-04-09T05:38:11.139Z,11.25
2023-04-09T05:40:38.108Z,11.24
2023-04-09T05:43:05.581Z,11.10
2023-04-09T05:45:32.517Z,10.67
2023-04-09T05:47:59.598Z,10.41
2023-04-09T05:50:29.222Z,10.53
2023-04-09T05:52:56.183Z,10.59
2023-04-09T05:55:23.140Z,10.58
2023-04-09T05:57:55.011Z,10.42
2023-04-09T06:00:27.542Z,10.24
2023-04-09T06:02:54.591Z,10.07
2023-04-09T06:05:23.667Z,10.16
2023-04-09T06:07:50.617Z,10.17
2023-04-09T06:10:19.778Z,10.59
2023-04-09T06:12:49.132Z,10.85
2023-04-09T06:15:17.054Z,11.04
2023-04-09T06:17:44.140Z,11.22
2023-04-09T06:20:11.758Z,11.20
2023-04-09T06:22:38.937Z,11.40
2023-04-09T06:25:07.191Z,11.54
2023-04-09T06:27:34.378Z,11.56
2023-04-09T06:30:03.853Z,11.27
2023-04-09T06:32:33.535Z,11.21
2023-04-09T06:35:02.636Z,11.15
2023-04-09T06:37:31.912Z,11.23
2023-04-09T06:40:01.394Z,11.31
2023-04-09T06:42:28.913Z,11.65
2023-04-09T06:44:56.015Z,11.58
2023-04-09T06:47:23.107Z,11.38
2023-04-09T06:49:50.038Z,10.94
2023-04-09T06:52:16.984Z,10.59
2023-04-09T06:54:46.613Z,10.42
2023-04-09T06:57:15.769Z,10.39
2023-04-09T06:59:47.449Z,10.13
2023-04-09T07:02:14.501Z,10.40
2023-04-09T07:04:41.893Z,10.51
2023-04-09T07:07:11.017Z,10.83
2023-04-09T07:09:40.445Z,10.96
2023-04-09T07:12:07.393Z,11.23
2023-04-09T07:14:34.326Z,11.48
2023-04-09T07:17:03.260Z,11.33
2023-04-09T07:19:30.930Z,11.52
2023-04-09T07:22:00.310Z,11.44
2023-04-09T07:24:30.073Z,11.67
2023-04-09T07:27:06.362Z,11.80
2023-04-09T07:29:33.291Z,11.81
2023-04-09T07:32:01.450Z,12.02
2023-04-09T07:34:31.100Z,12.03
2023-04-09T07:37:01.004Z,11.94
2023-04-09T07:39:27.944Z,12.02
2023-04-09T07:41:54.866Z,12.28
2023-04-09T07:44:24.798Z,12.20
2023-04-09T07:46:56.783Z,12.25
2023-04-09T07:49:23.816Z,12.02
2023-04-09T07:51:51.254Z,12.31
2023-04-09T07:54:23.192Z,13.02
2023-04-09T07:56:52.186Z,13.35
2023-04-09T07:59:21.788Z,13.48
2023-04-09T08:01:48.843Z,13.61
2023-04-09T08:04:18.456Z,13.89
2023-04-09T08:06:51.134Z,14.08
2023-04-09T08:09:21.317Z,13.77
2023-04-09T08:11:51.474Z,13.67
2023-04-09T08:14:18.931Z,13.61
2023-04-09T08:16:52.602Z,13.41
2023-04-09T08:19:21.855Z,13.80
2023-04-09T08:21:49.582Z,14.13
2023-04-09T08:24:19.140Z,13.68
2023-04-09T08:26:49.176Z,13.56
2023-04-09T08:29:16.269Z,14.11
2023-04-09T08:31:43.275Z,13.92
2023-04-09T08:34:10.276Z,13.79
2023-04-09T08:36:40.205Z,14.06
2023-04-09T08:39:07.069Z,14.03
2023-04-09T08:41:36.084Z,13.87
2023-04-09T08:44:05.476Z,13.69
2023-04-09T08:46:34.951Z,13.99
2023-04-09T08:49:04.628Z,13.65
2023-04-09T08:51:34.571Z,13.24
2023-04-09T08:54:06.558Z,12.84
2023-04-09T08:56:33.772Z,12.93
2023-04-09T08:59:02.952Z,13.21
2023-04-09T09:01:31.779Z,13.39
2023-04-09T09:04:11.526Z,13.37
2023-04-09T09:06:41.043Z,13.19
2023-04-09T09:09:11.842Z,13.44
2023-04-09T09:11:44.220Z,13.51
2023-04-09T09:14:13.927Z,13.60
2023-04-09T09:16:44.631Z,13.66
2023-04-09T09:19:31.459Z,13.47
2023-04-09T09:22:08.005Z,13.68
2023-04-09T09:24:51.267Z,14.15
2023-04-09T09:27:36.933Z,14.27
2023-04-09T09:30:08.658Z,14.58
2023-04-09T09:32:36.398Z,14.55
2023-04-09T09:35:09.324Z,14.38
2023-04-09T09:37:38.360Z,14.57
2023-04-09T09:40:08.924Z,15.02
2023-04-09T09:42:35.929Z,15.19
2023-04-09T09:45:17.761Z,15.54
2023-04-09T09:47:46.703Z,15.92
2023-04-09T09:50:16.161Z,15.49
2023-04-09T09:52:45.916Z,15.14
2023-04-09T09:55:19.765Z,15.26
2023-04-09T09:57:54.353Z,15.85
2023-04-09T10:00:25.545Z,16.34
2023-04-09T10:03:07.268Z,15.88
2023-04-09T10:05:36.697Z,15.91
2023-04-09T10:08:08.839Z,19.01
2023-04-09T10:10:38.477Z,22.15
2023-04-09T10:13:10.955Z,24.46
2023-04-09T10:15:38.618Z,26.96
2023-04-09T10:18:05.714Z,27.44
2023-04-09T10:21:08.068Z,26.06
2023-04-09T10:23:42.837Z,25.49
2023-04-09T10:26:10.341Z,27.24
2023-04-09T10:28:41.140Z,28.42
2023-04-09T10:31:08.618Z,30.13
2023-04-09T10:33:38.782Z,28.22
2023-04-09T10:36:10.970Z,29.37
2023-04-09T10:38:48.730Z,30.52
2023-04-09T10:41:22.786Z,30.51
2023-04-09T10:43:50.291Z,30.96
2023-04-09T10:46:37.087Z,31.57
2023-04-09T10:49:19.911Z,31.74
2023-04-09T10:52:12.583Z,31.71
2023-04-09T10:54:46.463Z,31.14
2023-04-09T10:57:22.856Z,31.82
2023-04-09T10:59:51.979Z,32.49
2023-04-09T11:02:54.835Z,31.17
2023-04-09T11:05:40.013Z,30.61
2023-04-09T11:08:14.421Z,30.68
2023-04-09T11:10:49.115Z,31.34
2023-04-09T11:13:20.033Z,30.03
2023-04-09T11:15:47.141Z,28.67
2023-04-09T11:18:23.224Z,28.20
2023-04-09T11:20:50.530Z,28.30
2023-04-09T11:23:18.698Z,29.61
2023-04-09T11:25:51.092Z,30.60
2023-04-09T11:28:21.586Z,30.41
2023-04-09T11:30:51.829Z,31.68
2023-04-09T11:33:20.268Z,30.53
2023-04-09T11:35:48.831Z,30.72
2023-04-09T11:38:18.334Z,30.70
2023-04-09T11:40:48.669Z,30.82
2023-04-09T11:43:16.900Z,30.12
2023-04-09T11:45:49.571Z,30.83
2023-04-09T11:48:21.724Z,29.85
2023-04-09T11:50:53.014Z,30.45
2023-04-09T11:53:25.293Z,31.12
2023-04-09T11:55:55.182Z,31.70
2023-04-09T11:58:28.560Z,33.06
2023-04-09T12:01:00.981Z,33.60
2023-04-09T12:03:34.377Z,32.53
2023-04-09T12:06:06.154Z,32.41
2023-04-09T12:08:37.265Z,32.80
2023-04-09T12:11:18.089Z,32.59
2023-04-09T12:13:46.927Z,31.25
2023-04-09T12:16:20.764Z,32.10
2023-04-09T12:18:50.874Z,32.04
2023-04-09T12:21:20.414Z,32.52
2023-04-09T12:23:50.439Z,31.88
2023-04-09T12:26:19.670Z,31.94
2023-04-09T12:28:48.982Z,32.07
2023-04-09T12:31:18.343Z,32.12
2023-04-09T12:33:45.545Z,31.66
2023-04-09T12:36:15.105Z,29.00
2023-04-09T12:38:42.184Z,27.29
2023-04-09T12:41:09.669Z,27.79
2023-04-09T12:43:37.279Z,28.26
2023-04-09T12:46:07.357Z,27.94
2023-04-09T12:48:35.116Z,27.18
2023-04-09T12:51:07.275Z,26.35
2023-04-09T12:53:34.433Z,25.89
2023-04-09T12:56:01.793Z,26.62
2023-04-09T12:58:29.430Z,27.74
2023-04-09T13:00:57.159Z,28.46
2023-04-09T13:03:27.837Z,27.67
2023-04-09T13:05:57.803Z,27.76
2023-04-09T13:08:25.459Z,28.84
2023-04-09T13:10:52.871Z,29.69
2023-04-09T13:13:20.117Z,30.38
2023-04-09T13:15:47.268Z,29.67
2023-04-09T13:18:17.493Z,28.45
2023-04-09T13:20:44.503Z,27.55
2023-04-09T13:23:11.694Z,26.74
2023-04-09T13:25:38.959Z,25.96
2023-04-09T13:28:08.150Z,24.60
2023-04-09T13:30:35.640Z,23.00
2023-04-09T13:33:04.769Z,22.70
2023-04-09T13:35:35.040Z,22.50
2023-04-09T13:38:04.441Z,23.07
2023-04-09T13:40:34.085Z,22.62
2023-04-09T13:43:01.479Z,23.10
2023-04-09T13:45:32.941Z,22.50
2023-04-09T13:48:00.186Z,21.84
2023-04-09T13:50:27.227Z,22.35
2023-04-09T13:52:54.504Z,23.17
2023-04-09T13:55:24.141Z,23.21
2023-04-09T13:57:51.207Z,23.64
2023-04-09T14:00:22.884Z,23.38
2023-04-09T14:02:49.949Z,23.00
2023-04-09T14:05:17.714Z,22.56
2023-04-09T14:07:44.794Z,22.34
2023-04-09T14:10:12.580Z,22.67
2023-04-09T14:12:39.556Z,22.72
2023-04-09T14:15:10.269Z,23.07
2023-04-09T14:17:37.282Z,22.21
2023-04-09T14:20:05.168Z,21.43
2023-04-09T14:22:35.079Z,21.05
2023-04-09T14:25:04.587Z,21.02
2023-04-09T14:27:34.473Z,21.34
2023-04-09T14:30:01.651Z,20.87
2023-04-09T14:32:28.852Z,20.94
2023-04-09T14:34:58.125Z,21.35
2023-04-09T14:37:27.901Z,21.54
2023-04-09T14:39:57.648Z,21.47
2023-04-09T14:42:24.722Z,21.65
2023-04-09T14:44:51.782Z,21.48
2023-04-09T14:47:18.904Z,20.60
2023-04-09T14:49:48.398Z,20.67
2023-04-09T14:52:15.491Z,21.22
2023-04-09T14:54:42.806Z,21.42
2023-04-09T14:57:09.900Z,21.19
2023-04-09T14:59:37.059Z,20.11
2023-04-09T15:02:08.833Z,19.66
2023-04-09T15:04:38.134Z,19.38
2023-04-09T15:07:06.816Z,19.14
2023-04-09T15:09:33.905Z,19.32
2023-04-09T15:12:01.536Z,19.58
2023-04-09T15:14:34.105Z,19.96
2023-04-09T15:17:01.063Z,20.20
2023-04-09T15:19:32.522Z,20.02
2023-04-09T15:21:59.617Z,19.83
2023-04-09T15:24:28.519Z,20.04
2023-04-09T15:26:57.074Z,20.11
2023-04-09T15:29:24.068Z,19.16
2023-04-09T15:31:53.359Z,18.75
2023-04-09T15:34:20.539Z,18.23
2023-04-09T15:36:47.783Z,18.52
2023-04-09T15:39:15.165Z,18.44
2023-04-09T15:41:42.266Z,18.46
2023-04-09T15:44:10.789Z,18.01
2023-04-09T15:46:43.031Z,18.29
2023-04-09T15:49:12.540Z,18.00
2023-04-09T15:51:39.568Z,18.10
2023-04-09T15:54:06.798Z,18.19
2023-04-09T15:56:36.354Z,18.24
2023-04-09T15:59:05.412Z,18.24
2023-04-09T16:01:33.184Z,17.77
2023-04-09T16:04:00.341Z,17.71
2023-04-09T16:06:27.559Z,17.86
2023-04-09T16:08:54.832Z,17.72
2023-04-09T16:11:22.320Z,17.79
2023-04-09T16:13:49.396Z,18.13
2023-04-09T16:16:19.388Z,17.85
2023-04-09T16:18:46.436Z,17.68
2023-04-09T16:21:13.776Z,17.59
2023-04-09T16:23:41.306Z,17.28
2023-04-09T16:26:11.284Z,17.14
2023-04-09T16:28:38.281Z,17.23
2023-04-09T16:31:07.999Z,16.92
2023-04-09T16:33:35.208Z,16.84
2023-04-09T16:36:02.665Z,16.87
2023-04-09T16:38:32.115Z,16.85
2023-04-09T16:41:02.133Z,16.53
2023-04-09T16:43:30.546Z,16.57
2023-04-09T16:45:57.560Z,16.41
2023-04-09T16:48:27.007Z,16.24
2023-04-09T16:50:56.591Z,16.00
2023-04-09T16:53:23.618Z,16.15
2023-04-09T16:55:50.763Z,15.94
2023-04-09T16:58:17.942Z,15.95
2023-04-09T17:00:51.856Z,16.01
2023-04-09T17:03:19.485Z,15.90
2023-04-09T17:05:49.635Z,15.72
2023-04-09T17:08:17.443Z,15.85
2023-04-09T17:10:44.949Z,15.79
2023-04-09T17:13:12.262Z,15.83
2023-04-09T17:15:39.588Z,15.67
2023-04-09T17:18:09.000Z,15.74
2023-04-09T17:20:35.958Z,16.07
2023-04-09T17:23:03.125Z,16.14
2023-04-09T17:25:30.266Z,16.09
2023-04-09T17:27:57.547Z,16.22
2023-04-09T17:30:24.573Z,16.16
2023-04-09T17:32:52.237Z,16.08
2023-04-09T17:35:19.280Z,16.04
2023-04-09T17:37:46.792Z,15.82
2023-04-09T17:40:18.649Z,15.66
2023-04-09T17:42:49.192Z,15.53
2023-04-09T17:45:18.705Z,15.28
2023-04-09T17:47:48.392Z,15.43
2023-04-09T17:50:15.495Z,15.60
2023-04-09T17:52:44.828Z,15.61
2023-04-09T17:55:15.583Z,15.44
2023-04-09T17:57:43.019Z,15.23
2023-04-09T18:00:16.287Z,15.31
2023-04-09T18:02:47.170Z,15.45
2023-04-09T18:05:14.643Z,15.43
2023-04-09T18:07:41.714Z,15.44
2023-04-09T18:10:09.139Z,15.48
2023-04-09T18:12:36.351Z,15.25
2023-04-09T18:15:04.311Z,15.02
2023-04-09T18:17:33.842Z,15.13
2023-04-09T18:20:01.398Z,15.21
2023-04-09T18:22:28.579Z,14.90
2023-04-09T18:24:56.091Z,15.04
2023-04-09T18:27:25.701Z,14.84
2023-04-09T18:29:52.711Z,14.80
2023-04-09T18:32:20.194Z,14.95
2023-04-09T18:34:50.327Z,14.86
2023-04-09T18:37:20.549Z,14.97
2023-04-09T18:39:47.975Z,14.90
2023-04-09T18:42:17.540Z,15.02
2023-04-09T18:44:47.298Z,15.03
2023-04-09T18:47:14.246Z,14.90
2023-04-09T18:49:41.606Z,14.96
2023-04-09T18:52:10.271Z,14.95
2023-04-09T18:54:38.923Z,14.82
2023-04-09T18:57:06.582Z,14.81
2023-04-09T18:59:35.200Z,14.79
2023-04-09T19:02:08.812Z,14.86
2023-04-09T19:04:39.705Z,14.81
2023-04-09T19:07:10.250Z,14.68
2023-04-09T19:09:41.960Z,14.60
2023-04-09T19:12:11.568Z,14.47
2023-04-09T19:14:40.295Z,14.47
2023-04-09T19:17:08.000Z,14.49
2023-04-09T19:19:35.116Z,14.31
2023-04-09T19:22:09.155Z,14.25
2023-04-09T19:24:38.409Z,14.28
2023-04-09T19:27:10.091Z,14.24
2023-04-09T19:29:41.562Z,14.26
2023-04-09T19:32:13.264Z,14.38
2023-04-09T19:34:40.674Z,14.26
2023-04-09T19:37:11.542Z,14.19
2023-04-09T19:39:43.280Z,14.06
2023-04-09T19:42:10.295Z,14.11
2023-04-09T19:44:39.434Z,14.11
2023-04-09T19:47:06.445Z,14.03
2023-04-09T19:49:35.751Z,13.96
2023-04-09T19:52:06.827Z,13.95
2023-04-09T19:54:34.860Z,13.89
2023-04-09T19:57:03.787Z,13.80
2023-04-09T19:59:36.297Z,13.68
2023-04-09T20:02:03.621Z,13.62
2023-04-09T20:04:30.987Z,13.64
2023-04-09T20:06:58.027Z,13.62
2023-04-09T20:09:27.657Z,13.60
2023-04-09T20:11:58.424Z,13.57
2023-04-09T20:14:27.738Z,13.56
2023-04-09T20:16:54.954Z,13.38
2023-04-09T20:19:24.388Z,13.45
2023-04-09T20:21:51.317Z,13.41
2023-04-09T20:24:18.249Z,13.27
2023-04-09T20:26:50.911Z,13.24
2023-04-09T20:29:21.008Z,13.17
2023-04-09T20:31:48.109Z,12.81
2023-04-09T20:34:15.345Z,12.53
2023-04-09T20:36:44.510Z,12.14
2023-04-09T20:39:14.015Z,12.17
2023-04-09T20:41:40.994Z,12.19
2023-04-09T20:44:10.272Z,12.00
2023-04-09T20:46:37.384Z,12.02
2023-04-09T20:49:08.994Z,12.02
2023-04-09T20:51:38.442Z,11.83
2023-04-09T20:54:05.436Z,11.83
2023-04-09T20:56:32.709Z,11.92
2023-04-09T20:58:59.703Z,11.82
2023-04-09T21:01:29.617Z,11.96
2023-04-09T21:03:56.863Z,11.73
2023-04-09T21:06:24.256Z,11.59
2023-04-09T21:08:51.695Z,11.30
2023-04-09T21:11:18.870Z,11.37
2023-04-09T21:13:54.379Z,11.31
2023-04-09T21:16:22.826Z,11.32
2023-04-09T21:18:50.473Z,11.29
2023-04-09T21:21:17.700Z,11.28
2023-04-09T21:23:44.727Z,11.22
2023-04-09T21:26:11.963Z,11.34
2023-04-09T21:28:41.486Z,11.46
2023-04-09T21:31:15.963Z,11.61
2023-04-09T21:33:45.380Z,11.64
2023-04-09T21:36:14.739Z,11.13
2023-04-09T21:38:44.200Z,10.89
2023-04-09T21:41:11.133Z,10.93
2023-04-09T21:43:40.677Z,10.98
2023-04-09T21:46:10.125Z,11.02
2023-04-09T21:48:41.043Z,10.95
2023-04-09T21:51:14.766Z,11.08
2023-04-09T21:53:43.840Z,11.16
2023-04-09T21:56:10.835Z,11.22
2023-04-09T21:58:40.246Z,11.05
2023-04-09T22:01:15.725Z,11.13
2023-04-09T22:03:49.908Z,11.09
2023-04-09T22:06:21.590Z,11.08
2023-04-09T22:08:56.161Z,11.02
2023-04-09T22:11:29.723Z,11.05
2023-04-09T22:13:57.710Z,11.10
2023-04-09T22:16:27.527Z,11.09
2023-04-09T22:18:55.289Z,10.92
2023-04-09T22:21:22.512Z,10.62
2023-04-09T22:23:52.035Z,10.50
2023-04-09T22:26:21.994Z,10.58
2023-04-09T22:28:51.437Z,10.64
2023-04-09T22:31:23.114Z,10.52
2023-04-09T22:33:50.614Z,10.65
2023-04-09T22:36:17.661Z,10.35
2023-04-09T22:38:46.974Z,10.56
2023-04-09T22:41:15.940Z,10.75
2023-04-09T22:43:42.939Z,10.80
2023-04-09T22:46:13.016Z,10.59
2023-04-09T22:48:44.941Z,10.55
2023-04-09T22:51:15.464Z,10.65
2023-04-09T22:53:46.828Z,10.79
2023-04-09T22:56:16.170Z,10.90
2023-04-09T22:58:43.214Z,10.62
2023-04-09T23:01:10.207Z,10.62
2023-04-09T23:03:39.770Z,10.58
2023-04-09T23:06:06.911Z,10.65
2023-04-09T23:08:33.870Z,10.73
2023-04-09T23:11:01.215Z,10.75
2023-04-09T23:13:34.830Z,10.60
2023-04-09T23:16:08.459Z,10.50
2023-04-09T23:18:36.319Z,10.47
2023-04-09T23:21:08.135Z,10.38
2023-04-09T23:23:39.086Z,10.39
2023-04-09T23:26:10.976Z,10.05
2023-04-09T23:28:37.951Z,10.28
2023-04-09T23:31:07.513Z,10.36
2023-04-09T23:33:39.952Z,10.43
2023-04-09T23:36:07.324Z,10.55
2023-04-09T23:38:34.309Z,10.44
2023-04-09T23:41:03.427Z,10.32
2023-04-09T23:43:30.610Z,10.34
2023-04-09T23:45:57.605Z,10.38
2023-04-09T23:48:26.856Z,10.29
2023-04-09T23:50:56.819Z,10.14
2023-04-09T23:53:23.922Z,10.24
2023-04-09T23:55:51.049Z,10.49
2023-04-09T23:58:18.755Z,10.50
